sensor_id;sensor_type;location;lat;lon;timestamp;temperature;humidity
11067;DHT22;29763;50.904;5.530;2022-07-23T00:00:18;17.10;99.90
11067;DHT22;29763;50.904;5.530;2022-07-23T00:02:44;17.00;99.90
11067;DHT22;29763;50.904;5.530;2022-07-23T00:05:10;17.00;99.90
11067;DHT22;29763;50.904;5.530;2022-07-23T00:07:36;17.00;99.90
11067;DHT22;29763;50.904;5.530;2022-07-23T00:10:04;16.90;99.90
11067;DHT22;29763;50.904;5.530;2022-07-23T00:12:31;16.90;99.90
11067;DHT22;29763;50.904;5.530;2022-07-23T00:14:57;16.90;99.90
11067;DHT22;29763;50.904;5.530;2022-07-23T00:17:24;16.80;99.90
11067;DHT22;29763;50.904;5.530;2022-07-23T00:19:51;16.70;99.90
11067;DHT22;29763;50.904;5.530;2022-07-23T00:22:20;16.70;99.90
11067;DHT22;29763;50.904;5.530;2022-07-23T00:24:45;16.70;99.90
11067;DHT22;29763;50.904;5.530;2022-07-23T00:27:11;16.70;99.90
11067;DHT22;29763;50.904;5.530;2022-07-23T00:29:44;16.70;99.90
11067;DHT22;29763;50.904;5.530;2022-07-23T00:32:10;16.70;99.90
11067;DHT22;29763;50.904;5.530;2022-07-23T00:34:36;16.60;99.90
11067;DHT22;29763;50.904;5.530;2022-07-23T00:37:06;16.50;99.90
11067;DHT22;29763;50.904;5.530;2022-07-23T00:39:34;16.50;99.90
11067;DHT22;29763;50.904;5.530;2022-07-23T00:42:01;16.50;99.90
11067;DHT22;29763;50.904;5.530;2022-07-23T00:44:27;16.40;99.90
11067;DHT22;29763;50.904;5.530;2022-07-23T00:46:57;16.40;99.90
11067;DHT22;29763;50.904;5.530;2022-07-23T00:49:27;16.40;99.90
11067;DHT22;29763;50.904;5.530;2022-07-23T00:51:53;16.40;99.90
11067;DHT22;29763;50.904;5.530;2022-07-23T00:54:23;16.40;99.90
11067;DHT22;29763;50.904;5.530;2022-07-23T00:56:50;16.40;99.90
11067;DHT22;29763;50.904;5.530;2022-07-23T00:59:16;16.40;99.90
11067;DHT22;29763;50.904;5.530;2022-07-23T01:01:48;16.30;99.90
11067;DHT22;29763;50.904;5.530;2022-07-23T01:04:15;16.30;99.90
11067;DHT22;29763;50.904;5.530;2022-07-23T01:06:46;16.30;99.90
11067;DHT22;29763;50.904;5.530;2022-07-23T01:09:12;16.20;99.90
11067;DHT22;29763;50.904;5.530;2022-07-23T01:11:40;16.20;99.90
11067;DHT22;29763;50.904;5.530;2022-07-23T01:14:14;16.20;99.90
11067;DHT22;29763;50.904;5.530;2022-07-23T01:16:41;16.10;99.90
11067;DHT22;29763;50.904;5.530;2022-07-23T01:19:08;16.10;99.90
11067;DHT22;29763;50.904;5.530;2022-07-23T01:21:37;16.10;99.90
11067;DHT22;29763;50.904;5.530;2022-07-23T01:24:04;16.00;99.90
11067;DHT22;29763;50.904;5.530;2022-07-23T01:26:30;16.00;99.90
11067;DHT22;29763;50.904;5.530;2022-07-23T01:28:57;16.00;99.90
11067;DHT22;29763;50.904;5.530;2022-07-23T01:31:23;16.00;99.90
11067;DHT22;29763;50.904;5.530;2022-07-23T01:33:50;15.90;99.90
11067;DHT22;29763;50.904;5.530;2022-07-23T01:36:19;15.90;99.90
11067;DHT22;29763;50.904;5.530;2022-07-23T01:38:45;15.90;99.90
11067;DHT22;29763;50.904;5.530;2022-07-23T01:41:11;15.90;99.90
11067;DHT22;29763;50.904;5.530;2022-07-23T01:43:37;15.90;99.90
11067;DHT22;29763;50.904;5.530;2022-07-23T01:46:03;15.90;99.90
11067;DHT22;29763;50.904;5.530;2022-07-23T01:48:30;15.90;99.90
11067;DHT22;29763;50.904;5.530;2022-07-23T01:50:56;15.80;99.90
11067;DHT22;29763;50.904;5.530;2022-07-23T01:53:23;15.80;99.90
11067;DHT22;29763;50.904;5.530;2022-07-23T01:55:54;15.70;99.90
11067;DHT22;29763;50.904;5.530;2022-07-23T01:58:20;15.80;99.90
11067;DHT22;29763;50.904;5.530;2022-07-23T02:00:47;15.80;99.90
11067;DHT22;29763;50.904;5.530;2022-07-23T02:03:14;15.80;99.90
11067;DHT22;29763;50.904;5.530;2022-07-23T02:05:41;15.70;99.90
11067;DHT22;29763;50.904;5.530;2022-07-23T02:08:08;15.60;99.90
11067;DHT22;29763;50.904;5.530;2022-07-23T02:10:36;15.60;99.90
11067;DHT22;29763;50.904;5.530;2022-07-23T02:13:01;15.50;99.90
11067;DHT22;29763;50.904;5.530;2022-07-23T02:15:27;15.40;99.90
11067;DHT22;29763;50.904;5.530;2022-07-23T02:17:55;15.40;99.90
11067;DHT22;29763;50.904;5.530;2022-07-23T02:20:22;15.40;99.90
11067;DHT22;29763;50.904;5.530;2022-07-23T02:22:54;15.40;99.90
11067;DHT22;29763;50.904;5.530;2022-07-23T02:25:20;15.30;99.90
11067;DHT22;29763;50.904;5.530;2022-07-23T02:27:46;15.40;99.90
11067;DHT22;29763;50.904;5.530;2022-07-23T02:30:14;15.30;99.90
11067;DHT22;29763;50.904;5.530;2022-07-23T02:32:41;15.30;99.90
11067;DHT22;29763;50.904;5.530;2022-07-23T02:35:13;15.20;99.90
11067;DHT22;29763;50.904;5.530;2022-07-23T02:37:45;15.20;99.90
11067;DHT22;29763;50.904;5.530;2022-07-23T02:40:11;15.30;99.90
11067;DHT22;29763;50.904;5.530;2022-07-23T02:42:39;15.20;99.90
11067;DHT22;29763;50.904;5.530;2022-07-23T02:45:05;15.30;99.90
11067;DHT22;29763;50.904;5.530;2022-07-23T02:47:33;15.30;99.90
11067;DHT22;29763;50.904;5.530;2022-07-23T02:49:59;15.30;99.90
11067;DHT22;29763;50.904;5.530;2022-07-23T02:52:26;15.30;99.90
11067;DHT22;29763;50.904;5.530;2022-07-23T02:54:53;15.20;99.90
11067;DHT22;29763;50.904;5.530;2022-07-23T02:57:19;15.10;99.90
11067;DHT22;29763;50.904;5.530;2022-07-23T02:59:44;15.10;99.90
11067;DHT22;29763;50.904;5.530;2022-07-23T03:02:10;15.10;99.90
11067;DHT22;29763;50.904;5.530;2022-07-23T03:04:37;15.10;99.90
11067;DHT22;29763;50.904;5.530;2022-07-23T03:07:03;15.10;99.90
11067;DHT22;29763;50.904;5.530;2022-07-23T03:09:28;15.10;99.90
11067;DHT22;29763;50.904;5.530;2022-07-23T03:11:54;15.10;99.90
11067;DHT22;29763;50.904;5.530;2022-07-23T03:14:21;15.10;99.90
11067;DHT22;29763;50.904;5.530;2022-07-23T03:16:47;15.10;99.90
11067;DHT22;29763;50.904;5.530;2022-07-23T03:19:15;15.10;99.90
11067;DHT22;29763;50.904;5.530;2022-07-23T03:21:46;15.00;99.90
11067;DHT22;29763;50.904;5.530;2022-07-23T03:24:12;15.00;99.90
11067;DHT22;29763;50.904;5.530;2022-07-23T03:26:38;15.00;99.90
11067;DHT22;29763;50.904;5.530;2022-07-23T03:29:05;14.90;99.90
11067;DHT22;29763;50.904;5.530;2022-07-23T03:31:32;14.90;99.90
11067;DHT22;29763;50.904;5.530;2022-07-23T03:33:58;14.90;99.90
11067;DHT22;29763;50.904;5.530;2022-07-23T03:36:24;14.90;99.90
11067;DHT22;29763;50.904;5.530;2022-07-23T03:38:53;14.90;99.90
11067;DHT22;29763;50.904;5.530;2022-07-23T03:41:19;14.90;99.90
11067;DHT22;29763;50.904;5.530;2022-07-23T03:43:47;14.90;99.90
11067;DHT22;29763;50.904;5.530;2022-07-23T03:46:12;14.80;99.90
11067;DHT22;29763;50.904;5.530;2022-07-23T03:48:38;14.80;99.90
11067;DHT22;29763;50.904;5.530;2022-07-23T03:51:06;14.80;99.90
11067;DHT22;29763;50.904;5.530;2022-07-23T03:53:33;14.80;99.90
11067;DHT22;29763;50.904;5.530;2022-07-23T03:56:00;14.80;99.90
11067;DHT22;29763;50.904;5.530;2022-07-23T03:58:32;14.70;99.90
11067;DHT22;29763;50.904;5.530;2022-07-23T04:00:59;14.70;99.90
11067;DHT22;29763;50.904;5.530;2022-07-23T04:03:25;14.70;99.90
11067;DHT22;29763;50.904;5.530;2022-07-23T04:05:55;14.70;99.90
11067;DHT22;29763;50.904;5.530;2022-07-23T04:08:21;14.70;99.90
11067;DHT22;29763;50.904;5.530;2022-07-23T04:10:47;14.70;99.90
11067;DHT22;29763;50.904;5.530;2022-07-23T04:13:13;14.70;99.90
11067;DHT22;29763;50.904;5.530;2022-07-23T04:15:40;14.70;99.90
11067;DHT22;29763;50.904;5.530;2022-07-23T04:18:05;14.70;99.90
11067;DHT22;29763;50.904;5.530;2022-07-23T04:20:31;14.70;99.90
11067;DHT22;29763;50.904;5.530;2022-07-23T04:22:57;14.70;99.90
11067;DHT22;29763;50.904;5.530;2022-07-23T04:25:24;14.70;99.90
11067;DHT22;29763;50.904;5.530;2022-07-23T04:27:52;14.70;99.90
11067;DHT22;29763;50.904;5.530;2022-07-23T04:30:18;14.70;99.90
11067;DHT22;29763;50.904;5.530;2022-07-23T04:32:48;14.70;99.90
11067;DHT22;29763;50.904;5.530;2022-07-23T04:35:14;14.80;99.90
11067;DHT22;29763;50.904;5.530;2022-07-23T04:37:46;14.80;99.90
11067;DHT22;29763;50.904;5.530;2022-07-23T04:40:25;14.90;99.90
11067;DHT22;29763;50.904;5.530;2022-07-23T04:42:51;14.90;99.90
11067;DHT22;29763;50.904;5.530;2022-07-23T04:45:17;14.90;99.90
11067;DHT22;29763;50.904;5.530;2022-07-23T04:47:42;15.00;99.90
11067;DHT22;29763;50.904;5.530;2022-07-23T04:50:10;15.00;99.90
11067;DHT22;29763;50.904;5.530;2022-07-23T04:52:35;15.00;99.90
11067;DHT22;29763;50.904;5.530;2022-07-23T04:55:09;15.00;99.90
11067;DHT22;29763;50.904;5.530;2022-07-23T04:57:34;15.20;99.90
11067;DHT22;29763;50.904;5.530;2022-07-23T05:00:04;15.20;99.90
11067;DHT22;29763;50.904;5.530;2022-07-23T05:02:31;15.20;99.90
11067;DHT22;29763;50.904;5.530;2022-07-23T05:04:56;15.30;99.90
11067;DHT22;29763;50.904;5.530;2022-07-23T05:07:22;15.30;99.90
11067;DHT22;29763;50.904;5.530;2022-07-23T05:09:49;15.40;99.90
11067;DHT22;29763;50.904;5.530;2022-07-23T05:12:15;15.50;99.90
11067;DHT22;29763;50.904;5.530;2022-07-23T05:14:41;15.50;99.90
11067;DHT22;29763;50.904;5.530;2022-07-23T05:17:07;15.70;99.90
11067;DHT22;29763;50.904;5.530;2022-07-23T05:19:35;15.80;99.90
11067;DHT22;29763;50.904;5.530;2022-07-23T05:22:01;15.90;99.90
11067;DHT22;29763;50.904;5.530;2022-07-23T05:24:27;16.10;99.90
11067;DHT22;29763;50.904;5.530;2022-07-23T05:26:53;16.20;99.90
11067;DHT22;29763;50.904;5.530;2022-07-23T05:29:19;16.40;99.90
11067;DHT22;29763;50.904;5.530;2022-07-23T05:31:45;16.60;99.90
11067;DHT22;29763;50.904;5.530;2022-07-23T05:34:11;16.70;99.90
11067;DHT22;29763;50.904;5.530;2022-07-23T05:36:37;16.80;99.90
11067;DHT22;29763;50.904;5.530;2022-07-23T05:39:04;17.00;99.90
11067;DHT22;29763;50.904;5.530;2022-07-23T05:41:30;17.10;99.90
11067;DHT22;29763;50.904;5.530;2022-07-23T05:43:55;17.20;99.90
11067;DHT22;29763;50.904;5.530;2022-07-23T05:46:21;17.40;99.90
11067;DHT22;29763;50.904;5.530;2022-07-23T05:48:47;17.60;99.90
11067;DHT22;29763;50.904;5.530;2022-07-23T05:51:27;17.80;99.90
11067;DHT22;29763;50.904;5.530;2022-07-23T05:53:52;18.10;99.90
11067;DHT22;29763;50.904;5.530;2022-07-23T05:56:19;18.30;99.90
11067;DHT22;29763;50.904;5.530;2022-07-23T05:58:45;18.50;99.90
11067;DHT22;29763;50.904;5.530;2022-07-23T06:01:11;18.70;99.90
11067;DHT22;29763;50.904;5.530;2022-07-23T06:03:38;18.90;99.90
11067;DHT22;29763;50.904;5.530;2022-07-23T06:06:05;19.10;99.90
11067;DHT22;29763;50.904;5.530;2022-07-23T06:08:31;19.20;99.90
11067;DHT22;29763;50.904;5.530;2022-07-23T06:10:58;19.40;99.90
11067;DHT22;29763;50.904;5.530;2022-07-23T06:13:27;19.70;99.90
11067;DHT22;29763;50.904;5.530;2022-07-23T06:15:58;19.90;99.90
11067;DHT22;29763;50.904;5.530;2022-07-23T06:18:24;20.00;99.90
11067;DHT22;29763;50.904;5.530;2022-07-23T06:20:51;20.20;99.90
11067;DHT22;29763;50.904;5.530;2022-07-23T06:23:17;20.30;99.90
11067;DHT22;29763;50.904;5.530;2022-07-23T06:25:44;20.50;99.90
11067;DHT22;29763;50.904;5.530;2022-07-23T06:28:10;20.70;99.90
11067;DHT22;29763;50.904;5.530;2022-07-23T06:30:40;21.00;99.90
11067;DHT22;29763;50.904;5.530;2022-07-23T06:33:06;21.20;99.90
11067;DHT22;29763;50.904;5.530;2022-07-23T06:35:31;21.40;99.90
11067;DHT22;29763;50.904;5.530;2022-07-23T06:37:59;21.40;99.90
11067;DHT22;29763;50.904;5.530;2022-07-23T06:40:26;21.50;99.90
11067;DHT22;29763;50.904;5.530;2022-07-23T06:42:51;21.70;99.90
11067;DHT22;29763;50.904;5.530;2022-07-23T06:45:19;21.90;99.90
11067;DHT22;29763;50.904;5.530;2022-07-23T06:47:44;22.00;99.90
11067;DHT22;29763;50.904;5.530;2022-07-23T06:50:14;22.10;99.90
11067;DHT22;29763;50.904;5.530;2022-07-23T06:52:41;22.20;99.90
11067;DHT22;29763;50.904;5.530;2022-07-23T06:55:07;22.40;99.90
11067;DHT22;29763;50.904;5.530;2022-07-23T06:57:38;22.60;99.90
11067;DHT22;29763;50.904;5.530;2022-07-23T07:00:04;22.60;99.90
11067;DHT22;29763;50.904;5.530;2022-07-23T07:02:31;22.70;99.90
11067;DHT22;29763;50.904;5.530;2022-07-23T07:04:58;22.90;99.90
11067;DHT22;29763;50.904;5.530;2022-07-23T07:07:24;23.20;99.90
11067;DHT22;29763;50.904;5.530;2022-07-23T07:09:50;23.50;99.90
11067;DHT22;29763;50.904;5.530;2022-07-23T07:12:15;23.80;99.90
11067;DHT22;29763;50.904;5.530;2022-07-23T07:14:41;24.00;99.90
11067;DHT22;29763;50.904;5.530;2022-07-23T07:17:08;24.30;99.90
11067;DHT22;29763;50.904;5.530;2022-07-23T07:19:36;24.70;99.90
11067;DHT22;29763;50.904;5.530;2022-07-23T07:22:02;25.10;99.90
11067;DHT22;29763;50.904;5.530;2022-07-23T07:24:35;25.20;99.90
11067;DHT22;29763;50.904;5.530;2022-07-23T07:27:00;25.50;99.90
11067;DHT22;29763;50.904;5.530;2022-07-23T07:29:26;25.70;99.90
11067;DHT22;29763;50.904;5.530;2022-07-23T07:31:52;26.00;99.90
11067;DHT22;29763;50.904;5.530;2022-07-23T07:34:19;26.20;99.90
11067;DHT22;29763;50.904;5.530;2022-07-23T07:36:51;26.40;99.90
11067;DHT22;29763;50.904;5.530;2022-07-23T07:39:23;26.60;99.90
11067;DHT22;29763;50.904;5.530;2022-07-23T07:41:48;26.70;99.90
11067;DHT22;29763;50.904;5.530;2022-07-23T07:44:14;26.60;99.90
11067;DHT22;29763;50.904;5.530;2022-07-23T07:46:41;26.30;99.90
11067;DHT22;29763;50.904;5.530;2022-07-23T07:49:08;26.20;99.90
11067;DHT22;29763;50.904;5.530;2022-07-23T07:51:34;26.40;99.90
11067;DHT22;29763;50.904;5.530;2022-07-23T07:54:02;26.70;99.90
11067;DHT22;29763;50.904;5.530;2022-07-23T07:56:27;26.90;99.90
11067;DHT22;29763;50.904;5.530;2022-07-23T07:58:53;27.10;99.90
11067;DHT22;29763;50.904;5.530;2022-07-23T08:01:20;27.10;99.90
11067;DHT22;29763;50.904;5.530;2022-07-23T08:03:47;27.00;99.90
11067;DHT22;29763;50.904;5.530;2022-07-23T08:06:13;26.80;99.90
11067;DHT22;29763;50.904;5.530;2022-07-23T08:08:42;26.50;99.90
11067;DHT22;29763;50.904;5.530;2022-07-23T08:11:08;26.10;99.90
11067;DHT22;29763;50.904;5.530;2022-07-23T08:13:34;25.90;99.90
11067;DHT22;29763;50.904;5.530;2022-07-23T08:15:59;26.00;99.90
11067;DHT22;29763;50.904;5.530;2022-07-23T08:18:26;26.40;99.90
11067;DHT22;29763;50.904;5.530;2022-07-23T08:20:53;26.70;99.90
11067;DHT22;29763;50.904;5.530;2022-07-23T08:23:19;27.30;99.90
11067;DHT22;29763;50.904;5.530;2022-07-23T08:25:52;27.80;99.90
11067;DHT22;29763;50.904;5.530;2022-07-23T08:28:21;28.30;99.90
11067;DHT22;29763;50.904;5.530;2022-07-23T08:30:47;28.60;99.90
11067;DHT22;29763;50.904;5.530;2022-07-23T08:33:15;28.80;99.90
11067;DHT22;29763;50.904;5.530;2022-07-23T08:35:43;28.90;99.90
11067;DHT22;29763;50.904;5.530;2022-07-23T08:38:13;29.20;99.90
11067;DHT22;29763;50.904;5.530;2022-07-23T08:40:41;29.60;99.90
11067;DHT22;29763;50.904;5.530;2022-07-23T08:43:19;29.10;99.90
11067;DHT22;29763;50.904;5.530;2022-07-23T08:45:46;28.70;99.90
11067;DHT22;29763;50.904;5.530;2022-07-23T08:48:22;28.60;99.90
11067;DHT22;29763;50.904;5.530;2022-07-23T08:50:57;28.40;99.90
11067;DHT22;29763;50.904;5.530;2022-07-23T08:53:27;28.70;99.90
11067;DHT22;29763;50.904;5.530;2022-07-23T08:55:55;29.30;99.90
11067;DHT22;29763;50.904;5.530;2022-07-23T08:58:22;29.60;99.90
11067;DHT22;29763;50.904;5.530;2022-07-23T09:00:50;30.20;99.90
11067;DHT22;29763;50.904;5.530;2022-07-23T09:03:22;30.50;99.90
11067;DHT22;29763;50.904;5.530;2022-07-23T09:05:53;31.00;99.90
11067;DHT22;29763;50.904;5.530;2022-07-23T09:08:23;31.40;99.80
11067;DHT22;29763;50.904;5.530;2022-07-23T09:16:10;30.80;98.80
11067;DHT22;29763;50.904;5.530;2022-07-23T09:18:57;30.90;99.20
11067;DHT22;29763;50.904;5.530;2022-07-23T09:24:12;31.30;98.00
11067;DHT22;29763;50.904;5.530;2022-07-23T09:26:56;32.00;98.20
11067;DHT22;29763;50.904;5.530;2022-07-23T09:29:25;31.20;97.70
11067;DHT22;29763;50.904;5.530;2022-07-23T09:36:49;31.20;97.70
11067;DHT22;29763;50.904;5.530;2022-07-23T09:39:22;31.70;97.90
11067;DHT22;29763;50.904;5.530;2022-07-23T09:41:51;32.00;95.60
11067;DHT22;29763;50.904;5.530;2022-07-23T09:44:20;31.60;95.80
11067;DHT22;29763;50.904;5.530;2022-07-23T09:46:50;31.80;96.00
11067;DHT22;29763;50.904;5.530;2022-07-23T09:49:23;32.20;96.10
11067;DHT22;29763;50.904;5.530;2022-07-23T09:52:08;32.60;94.60
11067;DHT22;29763;50.904;5.530;2022-07-23T09:54:36;33.30;93.90
11067;DHT22;29763;50.904;5.530;2022-07-23T09:57:05;33.00;92.50
11067;DHT22;29763;50.904;5.530;2022-07-23T09:59:38;33.50;91.80
11067;DHT22;29763;50.904;5.530;2022-07-23T10:02:06;33.90;91.90
11067;DHT22;29763;50.904;5.530;2022-07-23T10:04:33;33.50;90.60
11067;DHT22;29763;50.904;5.530;2022-07-23T10:07:03;33.40;91.30
11067;DHT22;29763;50.904;5.530;2022-07-23T10:09:34;33.50;91.30
11067;DHT22;29763;50.904;5.530;2022-07-23T10:12:02;33.50;91.00
11067;DHT22;29763;50.904;5.530;2022-07-23T10:14:49;33.40;90.00
11067;DHT22;29763;50.904;5.530;2022-07-23T10:17:16;33.10;90.00
11067;DHT22;29763;50.904;5.530;2022-07-23T10:19:50;32.80;90.20
11067;DHT22;29763;50.904;5.530;2022-07-23T10:22:28;32.50;91.00
11067;DHT22;29763;50.904;5.530;2022-07-23T10:31:25;32.50;91.00
11067;DHT22;29763;50.904;5.530;2022-07-23T10:34:14;32.30;90.80
11067;DHT22;29763;50.904;5.530;2022-07-23T10:36:56;32.20;91.20
11067;DHT22;29763;50.904;5.530;2022-07-23T10:39:34;32.20;91.70
11067;DHT22;29763;50.904;5.530;2022-07-23T10:42:14;32.70;91.00
11067;DHT22;29763;50.904;5.530;2022-07-23T10:47:10;33.80;90.50
11067;DHT22;29763;50.904;5.530;2022-07-23T10:49:48;34.00;87.00
11067;DHT22;29763;50.904;5.530;2022-07-23T10:57:29;33.70;88.30
11067;DHT22;29763;50.904;5.530;2022-07-23T11:02:42;34.10;87.50
11067;DHT22;29763;50.904;5.530;2022-07-23T11:05:12;34.10;87.00
11067;DHT22;29763;50.904;5.530;2022-07-23T11:10:55;34.20;82.50
11067;DHT22;29763;50.904;5.530;2022-07-23T11:13:46;34.00;84.20
11067;DHT22;29763;50.904;5.530;2022-07-23T11:16:23;33.70;84.50
11067;DHT22;29763;50.904;5.530;2022-07-23T11:18:54;33.10;82.40
11067;DHT22;29763;50.904;5.530;2022-07-23T11:24:00;33.10;83.60
11067;DHT22;29763;50.904;5.530;2022-07-23T11:26:48;33.10;85.30
11067;DHT22;29763;50.904;5.530;2022-07-23T11:32:28;33.20;86.20
11067;DHT22;29763;50.904;5.530;2022-07-23T11:35:20;33.90;86.10
11067;DHT22;29763;50.904;5.530;2022-07-23T11:37:48;33.80;80.60
11067;DHT22;29763;50.904;5.530;2022-07-23T11:40:16;33.70;82.50
11067;DHT22;29763;50.904;5.530;2022-07-23T11:43:01;33.80;82.70
11067;DHT22;29763;50.904;5.530;2022-07-23T11:45:37;34.30;81.30
11067;DHT22;29763;50.904;5.530;2022-07-23T11:48:06;34.70;78.90
11067;DHT22;29763;50.904;5.530;2022-07-23T11:50:33;35.00;78.20
11067;DHT22;29763;50.904;5.530;2022-07-23T11:53:01;35.10;77.20
11067;DHT22;29763;50.904;5.530;2022-07-23T11:55:30;35.10;74.80
11067;DHT22;29763;50.904;5.530;2022-07-23T11:57:55;34.90;76.00
11067;DHT22;29763;50.904;5.530;2022-07-23T12:00:28;34.70;75.90
11067;DHT22;29763;50.904;5.530;2022-07-23T12:02:59;34.50;75.00
11067;DHT22;29763;50.904;5.530;2022-07-23T12:05:31;34.40;76.60
11067;DHT22;29763;50.904;5.530;2022-07-23T12:07:57;34.40;77.10
11067;DHT22;29763;50.904;5.530;2022-07-23T12:10:42;34.80;76.00
11067;DHT22;29763;50.904;5.530;2022-07-23T12:13:29;34.60;72.40
11067;DHT22;29763;50.904;5.530;2022-07-23T12:15:57;34.10;75.30
11067;DHT22;29763;50.904;5.530;2022-07-23T12:18:26;34.10;76.00
11067;DHT22;29763;50.904;5.530;2022-07-23T12:20:54;34.30;74.30
11067;DHT22;29763;50.904;5.530;2022-07-23T12:23:23;34.20;71.50
11067;DHT22;29763;50.904;5.530;2022-07-23T12:25:50;34.00;73.50
11067;DHT22;29763;50.904;5.530;2022-07-23T12:28:31;34.30;75.20
11067;DHT22;29763;50.904;5.530;2022-07-23T12:30:58;34.70;72.80
11067;DHT22;29763;50.904;5.530;2022-07-23T12:33:30;34.70;72.60
11067;DHT22;29763;50.904;5.530;2022-07-23T12:35:59;34.80;72.20
11067;DHT22;29763;50.904;5.530;2022-07-23T12:38:27;34.90;72.00
11067;DHT22;29763;50.904;5.530;2022-07-23T12:49:30;33.90;74.80
11067;DHT22;29763;50.904;5.530;2022-07-23T12:51:55;33.80;74.10
11067;DHT22;29763;50.904;5.530;2022-07-23T12:54:27;33.80;74.10
11067;DHT22;29763;50.904;5.530;2022-07-23T12:56:53;34.10;74.60
11067;DHT22;29763;50.904;5.530;2022-07-23T12:59:19;34.60;74.00
11067;DHT22;29763;50.904;5.530;2022-07-23T13:01:56;34.80;71.40
11067;DHT22;29763;50.904;5.530;2022-07-23T13:04:25;34.60;70.40
11067;DHT22;29763;50.904;5.530;2022-07-23T13:07:01;34.60;70.30
11067;DHT22;29763;50.904;5.530;2022-07-23T13:09:31;35.10;70.00
11067;DHT22;29763;50.904;5.530;2022-07-23T13:11:59;35.50;69.60
11067;DHT22;29763;50.904;5.530;2022-07-23T13:14:25;35.50;69.60
11067;DHT22;29763;50.904;5.530;2022-07-23T13:16:52;35.80;68.90
11067;DHT22;29763;50.904;5.530;2022-07-23T13:19:19;35.80;69.70
11067;DHT22;29763;50.904;5.530;2022-07-23T13:21:48;35.80;68.60
11067;DHT22;29763;50.904;5.530;2022-07-23T13:24:14;35.70;68.80
11067;DHT22;29763;50.904;5.530;2022-07-23T13:26:40;35.60;66.60
11067;DHT22;29763;50.904;5.530;2022-07-23T13:29:06;35.50;67.70
11067;DHT22;29763;50.904;5.530;2022-07-23T13:31:33;35.20;68.40
11067;DHT22;29763;50.904;5.530;2022-07-23T13:33:59;35.00;70.10
11067;DHT22;29763;50.904;5.530;2022-07-23T13:36:28;35.10;69.90
11067;DHT22;29763;50.904;5.530;2022-07-23T13:38:53;35.30;69.10
11067;DHT22;29763;50.904;5.530;2022-07-23T13:41:19;35.60;70.80
11067;DHT22;29763;50.904;5.530;2022-07-23T13:43:45;35.60;71.70
11067;DHT22;29763;50.904;5.530;2022-07-23T13:46:11;35.50;68.70
11067;DHT22;29763;50.904;5.530;2022-07-23T13:48:37;35.30;70.60
11067;DHT22;29763;50.904;5.530;2022-07-23T13:51:03;35.10;70.90
11067;DHT22;29763;50.904;5.530;2022-07-23T13:53:29;34.90;69.40
11067;DHT22;29763;50.904;5.530;2022-07-23T13:55:54;34.70;71.10
11067;DHT22;29763;50.904;5.530;2022-07-23T13:58:20;34.50;70.70
11067;DHT22;29763;50.904;5.530;2022-07-23T14:00:49;34.20;71.20
11067;DHT22;29763;50.904;5.530;2022-07-23T14:03:17;33.90;71.60
11067;DHT22;29763;50.904;5.530;2022-07-23T14:05:42;33.70;72.30
11067;DHT22;29763;50.904;5.530;2022-07-23T14:08:09;33.90;71.20
11067;DHT22;29763;50.904;5.530;2022-07-23T14:10:35;34.00;73.50
11067;DHT22;29763;50.904;5.530;2022-07-23T14:13:01;33.90;72.00
11067;DHT22;29763;50.904;5.530;2022-07-23T14:15:28;34.40;72.20
11067;DHT22;29763;50.904;5.530;2022-07-23T14:17:55;34.80;71.30
11067;DHT22;29763;50.904;5.530;2022-07-23T14:20:21;34.80;68.70
11067;DHT22;29763;50.904;5.530;2022-07-23T14:22:48;35.10;70.20
11067;DHT22;29763;50.904;5.530;2022-07-23T14:25:15;35.10;71.50
11067;DHT22;29763;50.904;5.530;2022-07-23T14:27:41;34.90;69.40
11067;DHT22;29763;50.904;5.530;2022-07-23T14:30:08;34.80;70.70
11067;DHT22;29763;50.904;5.530;2022-07-23T14:32:35;34.70;69.60
11067;DHT22;29763;50.904;5.530;2022-07-23T14:35:01;34.20;68.10
11067;DHT22;29763;50.904;5.530;2022-07-23T14:37:27;34.10;68.60
11067;DHT22;29763;50.904;5.530;2022-07-23T14:39:52;34.20;67.80
11067;DHT22;29763;50.904;5.530;2022-07-23T14:42:18;34.60;67.80
11067;DHT22;29763;50.904;5.530;2022-07-23T14:44:44;34.80;67.70
11067;DHT22;29763;50.904;5.530;2022-07-23T14:47:10;35.00;68.60
11067;DHT22;29763;50.904;5.530;2022-07-23T14:49:36;34.60;68.90
11067;DHT22;29763;50.904;5.530;2022-07-23T14:52:03;34.50;68.70
11067;DHT22;29763;50.904;5.530;2022-07-23T14:54:30;34.00;69.30
11067;DHT22;29763;50.904;5.530;2022-07-23T14:56:58;34.10;70.10
11067;DHT22;29763;50.904;5.530;2022-07-23T14:59:24;34.10;71.00
11067;DHT22;29763;50.904;5.530;2022-07-23T15:01:53;34.40;69.60
11067;DHT22;29763;50.904;5.530;2022-07-23T15:04:23;34.50;69.10
11067;DHT22;29763;50.904;5.530;2022-07-23T15:06:49;34.60;68.40
11067;DHT22;29763;50.904;5.530;2022-07-23T15:09:15;34.30;70.20
11067;DHT22;29763;50.904;5.530;2022-07-23T15:11:40;33.80;69.50
11067;DHT22;29763;50.904;5.530;2022-07-23T15:14:07;33.70;71.20
11067;DHT22;29763;50.904;5.530;2022-07-23T15:16:34;33.70;70.90
11067;DHT22;29763;50.904;5.530;2022-07-23T15:19:01;33.40;69.20
11067;DHT22;29763;50.904;5.530;2022-07-23T15:21:28;33.20;71.10
11067;DHT22;29763;50.904;5.530;2022-07-23T15:23:57;33.20;70.30
11067;DHT22;29763;50.904;5.530;2022-07-23T15:26:27;33.10;71.50
11067;DHT22;29763;50.904;5.530;2022-07-23T15:28:53;32.90;70.90
11067;DHT22;29763;50.904;5.530;2022-07-23T15:31:19;32.70;70.90
11067;DHT22;29763;50.904;5.530;2022-07-23T15:33:45;32.50;71.30
11067;DHT22;29763;50.904;5.530;2022-07-23T15:36:10;32.60;72.00
11067;DHT22;29763;50.904;5.530;2022-07-23T15:38:36;32.60;71.50
11067;DHT22;29763;50.904;5.530;2022-07-23T15:41:02;32.60;70.80
11067;DHT22;29763;50.904;5.530;2022-07-23T15:43:28;32.80;71.10
11067;DHT22;29763;50.904;5.530;2022-07-23T15:45:54;32.90;71.80
11067;DHT22;29763;50.904;5.530;2022-07-23T15:48:20;32.70;71.20
11067;DHT22;29763;50.904;5.530;2022-07-23T15:50:46;32.50;71.20
11067;DHT22;29763;50.904;5.530;2022-07-23T15:53:13;32.60;70.60
11067;DHT22;29763;50.904;5.530;2022-07-23T15:55:42;32.80;71.20
11067;DHT22;29763;50.904;5.530;2022-07-23T15:58:13;32.50;70.80
11067;DHT22;29763;50.904;5.530;2022-07-23T16:00:40;32.10;72.10
11067;DHT22;29763;50.904;5.530;2022-07-23T16:03:05;32.10;72.20
11067;DHT22;29763;50.904;5.530;2022-07-23T16:05:31;32.20;73.90
11067;DHT22;29763;50.904;5.530;2022-07-23T16:08:01;32.10;73.40
11067;DHT22;29763;50.904;5.530;2022-07-23T16:10:27;32.10;74.70
11067;DHT22;29763;50.904;5.530;2022-07-23T16:12:53;32.10;75.30
11067;DHT22;29763;50.904;5.530;2022-07-23T16:15:19;32.30;74.50
11067;DHT22;29763;50.904;5.530;2022-07-23T16:17:45;32.60;73.50
11067;DHT22;29763;50.904;5.530;2022-07-23T16:20:12;32.90;72.50
11067;DHT22;29763;50.904;5.530;2022-07-23T16:22:38;33.00;72.80